Aflex, Kentucky
Current Conditions -  °F | °C
As of 6:55 AM on Saturday 25 Oct 2014 (Local Time) from KPBX Reporting Station
Haze Haze  
Wind Chill:   Ceiling: Unl
Heat Index:   Visibility: 1.7mi
Dew Point:   Wind: 5mph
Humidity: 98%   Direction: 180°S
Pressure: 30.07"   Gusts: NA
Location:  37.632°N, 82.2603°W
Report Text: KPBX 251055Z AUTO 18004KT 1 3/4SM BR SCT001 04/04 A3007 RMK AO2 VIS 1V3 T00390036
Loading
Personal Weather Stations






























Interactive Weather Map
Tropical Storm Tracking
New forecast layout! Learn more

10-Day Weather Forecast

Advertisements
Track Severe Weather on mobile